Time;durP1;ratioP1;P1;durP2;ratioP2;P2;SDS_P1;SDS_P2;PMS_P1;PMS_P2;Temp;Humidity;BMP_temperature;BMP_pressure;BME280_temperature;BME280_humidity;BME280_pressure;Samples;Min_cycle;Max_cycle;Signal;HPM_P1;HPM_P2
2023/10/11 03:01:05;;;;;;;33.00;11.60;;;16.60;99.90;;;;;;5703568;23;20074;-79
2023/10/11 03:03:31;;;;;;;33.33;12.48;;;16.60;99.90;;;;;;4957434;28;20082;-81
2023/10/11 03:05:57;;;;;;;29.85;11.95;;;16.60;99.90;;;;;;4957198;28;20129;-79
2023/10/11 03:08:26;;;;;;;36.22;12.95;;;16.60;99.90;;;;;;4974563;28;20174;-79
2023/10/11 03:10:53;;;;;;;34.90;13.00;;;16.60;99.90;;;;;;4959325;28;20050;-80
2023/10/11 03:13:25;;;;;;;28.55;11.52;;;16.60;99.90;;;;;;4973239;28;20043;-79
2023/10/11 03:15:54;;;;;;;40.55;12.68;;;16.60;99.90;;;;;;4973211;28;20051;-78
2023/10/11 03:18:31;;;;;;;35.45;12.57;;;16.60;99.90;;;;;;4973138;28;20046;-78
2023/10/11 03:21:07;;;;;;;31.70;11.48;;;16.60;99.90;;;;;;4973419;28;20117;-79
2023/10/11 03:23:44;;;;;;;36.88;12.18;;;16.60;99.90;;;;;;4957112;28;20035;-80
2023/10/11 03:26:23;;;;;;;33.97;11.85;;;16.60;99.90;;;;;;4973171;28;20045;-79
2023/10/11 03:28:57;;;;;;;36.78;11.90;;;16.60;99.90;;;;;;4957377;28;20042;-80
2023/10/11 03:31:40;;;;;;;32.35;11.70;;;16.60;99.90;;;;;;4973186;28;20429;-81
2023/10/11 03:34:14;;;;;;;28.10;11.68;;;16.60;99.90;;;;;;4974615;28;20038;-80
2023/10/11 03:36:51;;;;;;;35.60;11.90;;;16.60;99.90;;;;;;4973508;28;20054;-76
2023/10/11 03:42:07;;;;;;;27.15;11.35;;;16.60;99.90;;;;;;4971247;28;20513;-79
2023/10/11 03:44:36;;;;;;;33.00;11.60;;;16.60;99.90;;;;;;4956488;28;20402;-79
2023/10/11 03:47:06;;;;;;;34.60;11.95;;;16.70;99.90;;;;;;4971467;28;20034;-79
2023/10/11 03:49:38;;;;;;;33.88;11.52;;;16.70;99.90;;;;;;4972591;28;20158;-78
2023/10/11 03:52:04;;;;;;;32.38;11.80;;;16.70;99.90;;;;;;4974075;28;20110;-80
2023/10/11 03:54:30;;;;;;;32.78;11.80;;;16.70;99.90;;;;;;4958963;28;20125;-78
2023/10/11 03:56:56;;;;;;;36.88;12.63;;;16.70;99.90;;;;;;4976873;28;20086;-78
2023/10/11 03:59:25;;;;;;;29.90;11.52;;;16.70;99.90;;;;;;4976564;28;20617;-77
2023/10/11 04:01:54;;;;;;;25.85;11.25;;;16.70;99.90;;;;;;4976340;28;20058;-79
2023/10/11 04:04:23;;;;;;;37.90;12.63;;;16.70;99.90;;;;;;4960429;28;20047;-79
2023/10/11 04:06:51;;;;;;;39.03;11.88;;;16.70;99.90;;;;;;4977721;28;20051;-78
2023/10/11 04:09:37;;;;;;;29.75;12.13;;;16.80;99.90;;;;;;4976665;28;20405;-77
2023/10/11 04:12:10;;;;;;;33.28;10.85;;;16.70;99.90;;;;;;4976315;28;20516;-79
2023/10/11 04:14:44;;;;;;;30.98;11.98;;;16.80;99.90;;;;;;4978146;28;20049;-77
2023/10/11 04:19:51;;;;;;;36.80;12.50;;;16.80;99.90;;;;;;4976589;28;20402;-79
2023/10/11 04:22:23;;;;;;;27.02;11.73;;;16.90;99.90;;;;;;4976422;28;20135;-78
2023/10/11 04:24:52;;;;;;;30.45;11.77;;;16.90;99.90;;;;;;4976288;28;20054;-78
2023/10/11 04:29:50;;;;;;;38.05;12.68;;;16.90;99.90;;;;;;4976336;28;20573;-79
2023/10/11 04:32:19;;;;;;;35.63;12.15;;;16.90;99.90;;;;;;4975796;28;20043;-78
2023/10/11 04:34:48;;;;;;;34.88;12.32;;;16.90;99.90;;;;;;4976012;28;20050;-77
2023/10/11 04:37:27;;;;;;;32.83;12.93;;;16.90;99.90;;;;;;4976165;28;20082;-79
2023/10/11 04:40:22;;;;;;;37.08;14.25;;;16.90;99.90;;;;;;4976011;28;20039;-78
2023/10/11 04:42:45;;;;;;;41.78;15.07;;;16.90;99.90;;;;;;4975638;28;20061;-79
2023/10/11 04:45:21;;;;;;;32.25;13.27;;;16.80;99.90;;;;;;4959683;28;20050;-78
2023/10/11 04:47:51;;;;;;;32.38;13.90;;;16.80;99.90;;;;;;4975964;28;20046;-78
2023/10/11 04:50:17;;;;;;;38.85;13.85;;;16.80;99.90;;;;;;4975747;28;20520;-79
2023/10/11 04:52:48;;;;;;;33.85;12.85;;;16.80;99.90;;;;;;4975697;28;20047;-82
2023/10/11 04:55:15;;;;;;;32.25;13.43;;;16.80;99.90;;;;;;4977035;28;20557;-78
2023/10/11 04:58:03;;;;;;;37.30;13.00;;;16.80;99.90;;;;;;4975631;28;20117;-80
2023/10/11 05:00:31;;;;;;;;;;;16.80;99.90;;;;;;4976820;28;20502;-77
2023/10/11 05:03:02;;;;;;;34.60;14.10;;;16.80;99.90;;;;;;4975556;28;19918;-77
2023/10/11 05:05:28;;;;;;;40.70;14.18;;;16.80;99.90;;;;;;4975137;28;20054;-80
2023/10/11 05:08:14;;;;;;;32.47;13.60;;;16.80;99.90;;;;;;4975629;28;20442;-78
2023/10/11 05:10:46;;;;;;;42.28;14.82;;;16.80;99.90;;;;;;4975120;28;20046;-77
2023/10/11 05:13:16;;;;;;;34.03;13.57;;;16.80;99.90;;;;;;4975326;28;20082;-78
2023/10/11 05:15:47;;;;;;;28.08;13.20;;;16.80;99.90;;;;;;4975386;28;20133;-78
2023/10/11 05:18:18;;;;;;;33.10;14.38;;;16.80;99.90;;;;;;4975440;28;20042;-77
2023/10/11 05:20:57;;;;;;;39.45;14.95;;;16.80;99.90;;;;;;4975195;28;20151;-79
2023/10/11 05:23:32;;;;;;;36.05;14.57;;;16.80;99.90;;;;;;4975168;28;20057;-78
2023/10/11 05:25:59;;;;;;;36.95;14.02;;;16.70;99.90;;;;;;4975310;28;20043;-78
2023/10/11 05:28:27;;;;;;;39.22;13.27;;;16.70;99.90;;;;;;4975249;28;20189;-79
2023/10/11 05:31:22;;;;;;;39.88;14.35;;;16.70;99.90;;;;;;4975147;28;20387;-78
2023/10/11 05:33:59;;;;;;;36.90;14.60;;;16.70;99.90;;;;;;4974809;28;20055;-78
2023/10/11 05:36:51;;;;;;;45.33;16.42;;;16.70;99.90;;;;;;4975114;28;20403;-77
2023/10/11 05:52:58;;;;;;;41.38;15.68;;;16.60;99.90;;;;;;4975697;28;20093;-78
2023/10/11 05:55:23;;;;;;;36.53;16.45;;;16.60;99.90;;;;;;4975673;28;20047;-79
2023/10/11 05:57:52;;;;;;;39.58;15.85;;;16.50;99.90;;;;;;4975968;28;20471;-77
2023/10/11 06:00:25;;;;;;;42.72;16.83;;;16.50;99.90;;;;;;4974538;28;20066;-79
2023/10/11 06:02:54;;;;;;;44.40;16.23;;;16.50;99.90;;;;;;4974294;28;20078;-79
2023/10/11 06:05:24;;;;;;;40.47;17.38;;;16.50;99.90;;;;;;4974441;28;20051;-79
2023/10/11 06:08:00;;;;;;;45.47;17.35;;;16.50;99.90;;;;;;4958016;28;20042;-81
2023/10/11 06:10:41;;;;;;;44.50;16.65;;;16.50;99.90;;;;;;4974071;28;20066;-79
2023/10/11 06:13:13;;;;;;;42.42;16.98;;;16.50;99.90;;;;;;4974003;28;20046;-77
2023/10/11 06:15:58;;;;;;;39.70;16.10;;;16.50;99.90;;;;;;4973869;28;20398;-78
2023/10/11 06:18:39;;;;;;;39.67;16.40;;;16.50;99.90;;;;;;4958853;28;20125;-79
2023/10/11 06:21:18;;;;;;;39.05;16.67;;;16.50;99.90;;;;;;4958030;28;20105;-78
2023/10/11 06:23:44;;;;;;;42.95;16.48;;;16.50;99.90;;;;;;4973971;28;20117;-79
2023/10/11 06:29:03;;;;;;;44.38;17.15;;;16.50;99.90;;;;;;4974011;28;20202;-78
2023/10/11 06:31:39;;;;;;;49.15;17.90;;;16.50;99.90;;;;;;4957618;28;20051;-78
2023/10/11 06:34:15;;;;;;;46.30;16.42;;;16.50;99.90;;;;;;4973678;28;20054;-78
2023/10/11 06:36:51;;;;;;;45.72;17.15;;;16.50;99.90;;;;;;4973594;28;20078;-78
2023/10/11 06:39:34;;;;;;;45.63;16.65;;;16.50;99.90;;;;;;4974827;28;20126;-77
2023/10/11 06:42:12;;;;;;;38.08;15.55;;;16.60;99.90;;;;;;4973550;28;20042;-79
2023/10/11 06:44:39;;;;;;;47.92;17.85;;;16.70;99.90;;;;;;4973438;28;20105;-77
2023/10/11 06:47:04;;;;;;;35.70;16.50;;;16.60;99.90;;;;;;4973313;28;20050;-80
2023/10/11 06:49:40;;;;;;;43.40;17.83;;;16.70;99.90;;;;;;4973644;28;20112;-78
2023/10/11 06:52:11;;;;;;;51.65;18.38;;;16.70;99.90;;;;;;4973572;28;20443;-78
2023/10/11 06:54:46;;;;;;;51.45;21.27;;;16.70;99.90;;;;;;4973162;28;20130;-78
2023/10/11 06:57:21;;;;;;;56.67;22.27;;;16.70;99.90;;;;;;4964687;28;20039;-77
2023/10/11 06:59:56;;;;;;;54.33;23.48;;;16.70;99.90;;;;;;4965628;28;20479;-80
2023/10/11 07:02:33;;;;;;;63.85;24.77;;;16.70;99.90;;;;;;4961378;28;20039;-80
2023/10/11 07:05:05;;;;;;;66.97;26.60;;;16.70;99.90;;;;;;4963256;28;20094;-80
2023/10/11 07:07:32;;;;;;;65.75;28.40;;;16.70;99.90;;;;;;4961987;28;20539;-79
2023/10/11 07:10:00;;;;;;;73.32;28.88;;;16.80;99.90;;;;;;4964473;28;20077;-78
2023/10/11 07:12:28;;;;;;;65.45;28.25;;;16.70;99.90;;;;;;4961946;28;20078;-79
2023/10/11 07:14:57;;;;;;;64.22;27.70;;;16.80;99.90;;;;;;4961895;28;20114;-78
2023/10/11 07:17:25;;;;;;;75.53;31.02;;;16.80;99.90;;;;;;4963264;28;20038;-77
2023/10/11 07:19:51;;;;;;;71.60;33.08;;;16.80;99.90;;;;;;4961448;28;20466;-77
2023/10/11 07:22:25;;;;;;;80.50;33.78;;;16.80;99.90;;;;;;4964550;28;20043;-79
2023/10/11 07:25:18;;;;;;;81.47;35.55;;;16.80;99.90;;;;;;4960655;28;20509;-79
2023/10/11 07:27:44;;;;;;;75.38;34.55;;;16.80;99.90;;;;;;4964918;28;20387;-78
2023/10/11 07:30:16;;;;;;;79.55;34.58;;;16.90;99.90;;;;;;4968034;28;20054;-79
2023/10/11 07:32:42;;;;;;;89.30;33.50;;;16.90;99.90;;;;;;4966452;28;20055;-78
2023/10/11 07:35:18;;;;;;;72.63;30.30;;;16.90;99.90;;;;;;4966247;28;20450;-77
2023/10/11 07:37:44;;;;;;;75.10;32.97;;;17.00;99.90;;;;;;4966921;28;20050;-77
2023/10/11 07:40:13;;;;;;;75.35;32.33;;;17.00;99.90;;;;;;4967949;28;20397;-79
2023/10/11 07:42:39;;;;;;;79.80;34.80;;;17.00;99.90;;;;;;4967598;28;20051;-79
2023/10/11 07:45:12;;;;;;;79.60;35.28;;;17.00;99.90;;;;;;4967577;28;20049;-79
2023/10/11 07:47:45;;;;;;;79.28;34.42;;;17.00;99.90;;;;;;4967484;28;20069;-79
2023/10/11 07:50:14;;;;;;;90.45;39.92;;;17.00;99.90;;;;;;4946575;29;20062;-77
2023/10/11 07:52:41;;;;;;;87.07;38.05;;;17.00;99.90;;;;;;4962428;28;20035;-78
2023/10/11 07:55:12;;;;;;;88.25;40.17;;;17.00;99.90;;;;;;4950650;28;20035;-78
2023/10/11 07:57:47;;;;;;;90.72;42.50;;;17.10;99.90;;;;;;4968438;28;20074;-77
2023/10/11 08:00:17;;;;;;;83.95;39.10;;;17.10;99.90;;;;;;4962870;28;20084;-79
2023/10/11 08:02:56;;;;;;;91.70;38.03;;;17.00;99.90;;;;;;4957147;29;20053;-78
2023/10/11 08:05:25;;;;;;;70.43;32.53;;;17.00;99.90;;;;;;4957201;29;20094;-78
2023/10/11 08:07:55;;;;;;;78.82;31.65;;;17.00;99.90;;;;;;4956828;29;20098;-81
2023/10/11 08:10:44;;;;;;;68.50;28.45;;;17.10;99.90;;;;;;4957080;29;20054;-78
2023/10/11 08:13:23;;;;;;;55.55;24.30;;;17.10;99.90;;;;;;4956868;29;20082;-76
2023/10/11 08:15:57;;;;;;;49.80;21.70;;;17.10;99.90;;;;;;4958482;29;20050;-79
2023/10/11 08:18:24;;;;;;;45.10;20.52;;;17.10;99.90;;;;;;4958680;29;20061;-76
2023/10/11 08:20:50;;;;;;;44.90;18.05;;;17.20;99.90;;;;;;4960564;28;20067;-76
2023/10/11 08:23:28;;;;;;;40.05;17.73;;;17.20;99.90;;;;;;4958016;29;20398;-80
2023/10/11 08:25:55;;;;;;;32.28;13.85;;;17.20;99.90;;;;;;4958619;29;20391;-78
2023/10/11 08:28:28;;;;;;;34.45;14.27;;;17.20;99.90;;;;;;4956834;29;20111;-78
2023/10/11 08:30:57;;;;;;;28.73;12.65;;;17.30;99.90;;;;;;4957794;29;20074;-79
2023/10/11 08:33:25;;;;;;;32.45;13.15;;;17.30;99.90;;;;;;4956570;29;20046;-79
2023/10/11 08:35:53;;;;;;;29.10;11.80;;;17.30;99.90;;;;;;4966901;28;20074;-78
2023/10/11 08:38:19;;;;;;;30.83;11.98;;;17.30;99.90;;;;;;4975884;28;20049;-77
2023/10/11 08:40:50;;;;;;;24.15;10.35;;;17.40;99.90;;;;;;4976295;28;20065;-79
2023/10/11 08:43:16;;;;;;;30.92;10.38;;;17.40;99.90;;;;;;4975889;28;20122;-77
2023/10/11 08:45:48;;;;;;;22.13;9.82;;;17.40;99.90;;;;;;4976149;28;20038;-79
2023/10/11 08:48:15;;;;;;;22.33;9.30;;;17.40;99.90;;;;;;4977486;28;20046;-78
2023/10/11 08:50:51;;;;;;;24.63;9.48;;;17.50;99.90;;;;;;4977041;28;20039;-80
2023/10/11 08:53:22;;;;;;;20.48;8.95;;;17.50;99.90;;;;;;4975745;28;20050;-81
2023/10/11 08:55:55;;;;;;;22.27;10.10;;;17.50;99.90;;;;;;4975800;28;20043;-79
2023/10/11 08:58:23;;;;;;;25.83;10.07;;;17.50;99.90;;;;;;4975443;28;20057;-79
2023/10/11 09:00:55;;;;;;;25.80;10.35;;;17.50;99.90;;;;;;4975369;28;20043;-79
2023/10/11 09:03:23;;;;;;;23.58;9.60;;;17.50;99.90;;;;;;4975777;28;20047;-79
2023/10/11 09:05:58;;;;;;;27.80;11.30;;;17.50;99.90;;;;;;4975178;28;20047;-78
2023/10/11 09:08:32;;;;;;;26.52;9.70;;;17.50;99.90;;;;;;4965631;28;20122;-78
2023/10/11 09:13:53;;;;;;;24.17;9.70;;;17.50;99.90;;;;;;4975335;28;20047;-78
2023/10/11 09:16:37;;;;;;;18.55;7.97;;;17.60;99.90;;;;;;4976375;28;20038;-78
2023/10/11 09:19:10;;;;;;;16.95;8.32;;;17.60;99.90;;;;;;4976423;28;20041;-79
2023/10/11 09:21:36;;;;;;;19.40;8.40;;;17.60;99.90;;;;;;4975580;28;20458;-78
2023/10/11 09:24:03;;;;;;;22.75;9.38;;;17.70;99.90;;;;;;4970481;28;20209;-78
2023/10/11 09:26:37;;;;;;;25.23;8.75;;;17.70;99.90;;;;;;4960896;28;20376;-79
2023/10/11 09:29:04;;;;;;;22.88;8.68;;;17.70;99.90;;;;;;4964869;28;20149;-79
2023/10/11 09:31:31;;;;;;;18.58;8.75;;;17.70;99.90;;;;;;4965820;28;20495;-79
2023/10/11 09:34:05;;;;;;;24.73;9.07;;;17.60;99.90;;;;;;4958277;28;20051;-79
2023/10/11 09:36:31;;;;;;;20.95;8.30;;;17.60;99.90;;;;;;4955903;29;20466;-78
2023/10/11 09:38:58;;;;;;;18.63;8.27;;;17.70;99.90;;;;;;4956745;29;20106;-79
2023/10/11 09:41:40;;;;;;;15.95;7.20;;;17.70;99.90;;;;;;4955067;29;20046;-79
2023/10/11 09:44:10;;;;;;;15.48;7.15;;;17.80;99.90;;;;;;4955493;29;20047;-79
2023/10/11 09:46:37;;;;;;;17.63;7.68;;;17.90;99.90;;;;;;4955316;29;20108;-80
2023/10/11 09:49:12;;;;;;;25.92;8.07;;;18.00;99.90;;;;;;4955351;29;20054;-79
2023/10/11 09:51:41;;;;;;;18.02;7.28;;;18.10;99.90;;;;;;4958065;28;20079;-77
2023/10/11 09:54:14;;;;;;;24.48;7.90;;;18.10;99.90;;;;;;4965009;28;20039;-79
2023/10/11 09:56:48;;;;;;;17.83;7.18;;;18.20;99.90;;;;;;4967703;28;20166;-78
2023/10/11 09:59:51;;;;;;;15.98;6.32;;;18.20;99.90;;;;;;4971585;28;20049;-78
2023/10/11 10:02:34;;;;;;;17.60;6.75;;;18.20;99.90;;;;;;4974126;28;20043;-77
2023/10/11 10:05:05;;;;;;;19.02;6.57;;;18.20;99.90;;;;;;4975887;28;20050;-82
2023/10/11 10:07:33;;;;;;;17.40;6.10;;;18.30;99.90;;;;;;4974306;28;20047;-78
2023/10/11 10:10:00;;;;;;;18.17;6.55;;;18.30;99.90;;;;;;4958152;28;20491;-77
2023/10/11 10:12:31;;;;;;;14.55;6.43;;;18.30;99.90;;;;;;4974148;28;20047;-80
2023/10/11 10:15:07;;;;;;;14.43;6.05;;;18.30;99.90;;;;;;4974350;28;20103;-81
2023/10/11 10:17:33;;;;;;;15.52;5.97;;;18.20;99.90;;;;;;4974375;28;20047;-80
2023/10/11 10:20:49;;;;;;;19.73;5.80;;;18.30;99.90;;;;;;4974051;28;20395;-80
2023/10/11 10:23:15;;;;;;;15.15;6.07;;;18.20;99.90;;;;;;4959109;28;20057;-79
2023/10/11 10:26:03;;;;;;;19.58;6.50;;;18.10;99.90;;;;;;4975321;28;20395;-78
2023/10/11 10:28:34;;;;;;;14.88;5.70;;;18.10;99.90;;;;;;4973295;28;20394;-80
2023/10/11 10:31:19;;;;;;;15.57;6.93;;;18.00;99.90;;;;;;4969688;28;20042;-79
2023/10/11 10:33:52;;;;;;;15.60;6.40;;;18.00;99.90;;;;;;4961823;28;20062;-80
2023/10/11 10:36:19;;;;;;;16.58;7.13;;;18.00;99.90;;;;;;4955964;29;20043;-78
2023/10/11 10:38:59;;;;;;;17.80;7.45;;;18.00;99.90;;;;;;4955605;29;20051;-79
2023/10/11 10:41:32;;;;;;;14.68;6.60;;;18.10;99.90;;;;;;4962167;28;20034;-79
2023/10/11 10:44:12;;;;;;;14.23;5.45;;;18.10;99.90;;;;;;4967216;28;20086;-79
2023/10/11 10:47:08;;;;;;;12.50;6.18;;;18.10;99.90;;;;;;4973605;28;20073;-78
2023/10/11 10:49:42;;;;;;;14.57;5.57;;;18.20;99.90;;;;;;4942580;28;20054;-78
2023/10/11 10:52:29;;;;;;;12.68;5.47;;;18.30;99.90;;;;;;4973266;28;20078;-80
2023/10/11 10:55:03;;;;;;;12.35;5.25;;;18.50;99.90;;;;;;4973653;28;20086;-79
2023/10/11 10:57:36;;;;;;;10.87;4.73;;;18.70;99.90;;;;;;4973371;28;20134;-81
2023/10/11 11:00:16;;;;;;;10.00;4.57;;;18.90;99.90;;;;;;4973613;28;20285;-78
2023/10/11 11:02:43;;;;;;;14.38;4.90;;;18.80;99.90;;;;;;4957694;28;20485;-78
2023/10/11 11:05:13;;;;;;;13.38;4.75;;;18.80;99.90;;;;;;4973337;28;20047;-80
2023/10/11 11:07:40;;;;;;;9.18;4.93;;;18.70;99.90;;;;;;4969283;28;20117;-76
2023/10/11 11:10:06;;;;;;;13.20;5.10;;;18.70;99.90;;;;;;4962155;28;20497;-79
2023/10/11 11:12:32;;;;;;;12.38;4.93;;;18.70;99.90;;;;;;4947920;28;20518;-78
2023/10/11 11:14:59;;;;;;;13.30;4.40;;;18.70;99.90;;;;;;4962110;28;20460;-79
2023/10/11 11:17:45;;;;;;;13.93;4.97;;;18.80;99.90;;;;;;4963780;28;20098;-81
2023/10/11 11:22:46;;;;;;;10.15;4.35;;;18.80;99.90;;;;;;4965166;28;20047;-81
2023/10/11 11:25:26;;;;;;;14.07;4.18;;;18.80;99.90;;;;;;4964669;28;20142;-79
2023/10/11 11:30:43;;;;;;;13.32;4.20;;;18.70;99.90;;;;;;4963064;28;20182;-78
2023/10/11 11:33:35;;;;;;;13.40;4.80;;;18.80;99.90;;;;;;4964799;28;20042;-79
2023/10/11 11:36:10;;;;;;;8.93;3.90;;;18.80;99.90;;;;;;4963013;28;20458;-79
2023/10/11 11:38:37;;;;;;;9.10;4.07;;;18.80;99.90;;;;;;4961614;28;20142;-80
2023/10/11 11:41:06;;;;;;;10.05;3.72;;;18.90;99.90;;;;;;4962956;28;20047;-79
2023/10/11 11:43:33;;;;;;;9.43;3.38;;;18.90;99.90;;;;;;4961911;28;20043;-80
2023/10/11 11:46:03;;;;;;;9.20;3.50;;;18.90;99.90;;;;;;4961099;28;20139;-80
2023/10/11 11:48:29;;;;;;;9.25;3.83;;;18.90;99.90;;;;;;4957122;28;20043;-81
2023/10/11 11:51:04;;;;;;;14.27;4.55;;;19.10;99.90;;;;;;4972942;28;20047;-80
2023/10/11 11:53:30;;;;;;;10.90;3.97;;;19.40;99.90;;;;;;4974293;28;20390;-76
2023/10/11 11:55:56;;;;;;;14.15;4.53;;;19.40;99.90;;;;;;4973166;28;20046;-77
2023/10/11 11:58:22;;;;;;;16.73;4.10;;;19.40;99.90;;;;;;4972892;28;20475;-81
2023/10/11 12:01:08;;;;;;;15.40;3.78;;;19.30;99.90;;;;;;4973901;28;20050;-76
2023/10/11 12:03:36;;;;;;;9.57;4.28;;;19.20;99.90;;;;;;4973117;28;20058;-79
2023/10/11 12:06:03;;;;;;;12.85;4.35;;;19.30;99.90;;;;;;4972933;28;20034;-78
2023/10/11 12:08:34;;;;;;;11.70;4.88;;;19.30;99.90;;;;;;4972618;28;20068;-78
2023/10/11 12:11:00;;;;;;;8.75;4.30;;;19.50;99.90;;;;;;4956629;28;20046;-76
2023/10/11 12:13:27;;;;;;;16.85;5.30;;;19.50;99.90;;;;;;4972747;28;20403;-77
2023/10/11 12:15:55;;;;;;;13.70;5.00;;;19.80;99.90;;;;;;4959159;28;20043;-78
2023/10/11 12:18:32;;;;;;;13.18;4.18;;;19.80;99.90;;;;;;4976303;28;20102;-78
2023/10/11 12:21:10;;;;;;;12.57;4.45;;;19.90;99.90;;;;;;4977773;28;20045;-79
2023/10/11 12:23:36;;;;;;;11.35;4.53;;;20.00;99.90;;;;;;4977648;28;20050;-77
2023/10/11 12:26:04;;;;;;;17.95;3.97;;;19.90;99.90;;;;;;4977398;28;20053;-78
2023/10/11 12:28:30;;;;;;;11.77;4.43;;;19.80;99.90;;;;;;4977174;28;20426;-77
2023/10/11 12:31:00;;;;;;;12.32;4.05;;;19.70;99.90;;;;;;4977727;28;20039;-79
2023/10/11 12:33:27;;;;;;;15.52;4.53;;;19.70;99.90;;;;;;4975953;28;20097;-77
2023/10/11 12:35:53;;;;;;;11.65;3.63;;;19.70;99.90;;;;;;4976148;28;20057;-79
2023/10/11 12:38:18;;;;;;;10.30;3.70;;;19.60;99.90;;;;;;4977713;28;20038;-77
2023/10/11 12:40:44;;;;;;;15.88;4.65;;;19.60;99.90;;;;;;4975707;28;20039;-77
2023/10/11 12:43:10;;;;;;;8.60;3.78;;;19.60;99.90;;;;;;4977358;28;20046;-78
2023/10/11 12:45:42;;;;;;;14.07;3.90;;;19.50;99.90;;;;;;4975838;28;20159;-78
2023/10/11 12:48:10;;;;;;;8.75;3.88;;;19.50;99.90;;;;;;4975794;28;20051;-80
2023/10/11 12:50:36;;;;;;;9.27;3.58;;;19.60;99.90;;;;;;4975597;28;20053;-77
2023/10/11 12:53:12;;;;;;;12.90;4.38;;;19.60;99.90;;;;;;4975897;28;20051;-77
2023/10/11 12:55:39;;;;;;;10.52;3.75;;;19.60;99.90;;;;;;4976874;28;20039;-78
2023/10/11 12:58:05;;;;;;;9.07;3.92;;;19.70;99.90;;;;;;4976965;28;20043;-79
2023/10/11 13:00:37;;;;;;;11.93;4.13;;;19.80;99.90;;;;;;4976790;28;20089;-78
2023/10/11 13:03:18;;;;;;;14.60;4.78;;;19.80;99.90;;;;;;4975447;28;20047;-78
2023/10/11 13:05:47;;;;;;;10.98;3.95;;;20.00;99.90;;;;;;4975482;28;20048;-78
2023/10/11 13:08:15;;;;;;;13.80;3.72;;;20.10;99.90;;;;;;4975403;28;20399;-80
2023/10/11 13:10:43;;;;;;;9.15;3.22;;;20.10;99.90;;;;;;4975157;28;20473;-76
2023/10/11 13:13:09;;;;;;;11.38;4.22;;;20.00;99.90;;;;;;4976466;28;20094;-76
2023/10/11 13:15:38;;;;;;;11.65;3.63;;;19.90;99.90;;;;;;4975538;28;20050;-76
2023/10/11 13:18:09;;;;;;;10.95;3.90;;;19.80;99.90;;;;;;4976507;28;20039;-80
2023/10/11 13:20:36;;;;;;;9.73;3.88;;;19.80;99.90;;;;;;4975447;28;20148;-78
2023/10/11 13:23:02;;;;;;;13.32;3.70;;;19.80;99.90;;;;;;4976166;28;20073;-77
2023/10/11 13:25:28;;;;;;;14.63;4.05;;;19.80;99.90;;;;;;4974930;28;20042;-77
2023/10/11 13:27:54;;;;;;;7.28;3.70;;;19.80;99.90;;;;;;4976151;28;20398;-81
2023/10/11 13:30:23;;;;;;;9.18;3.58;;;19.80;99.90;;;;;;4958802;28;20046;-77
2023/10/11 13:32:51;;;;;;;11.50;3.38;;;19.80;99.90;;;;;;4974851;28;20047;-80
2023/10/11 13:35:17;;;;;;;12.05;3.65;;;19.70;99.90;;;;;;4974868;28;20042;-83
2023/10/11 13:37:46;;;;;;;12.95;3.50;;;19.70;99.90;;;;;;4975090;28;20043;-77
2023/10/11 13:40:15;;;;;;;10.10;3.47;;;19.70;99.90;;;;;;4974832;28;20038;-78
2023/10/11 13:42:42;;;;;;;12.93;3.83;;;19.70;99.90;;;;;;4974745;28;20161;-77
2023/10/11 13:45:10;;;;;;;11.30;3.97;;;19.70;99.90;;;;;;4974772;28;20051;-76
2023/10/11 13:47:38;;;;;;;14.93;3.55;;;19.70;99.90;;;;;;4958622;28;20538;-79
2023/10/11 13:50:08;;;;;;;14.98;4.57;;;19.60;99.90;;;;;;4974515;28;20049;-80
2023/10/11 13:52:37;;;;;;;14.02;4.10;;;19.60;99.90;;;;;;4958442;28;20046;-76
2023/10/11 13:55:11;;;;;;;10.98;3.90;;;19.60;99.90;;;;;;4975812;28;20574;-78
2023/10/11 13:57:37;;;;;;;11.00;4.25;;;19.60;99.90;;;;;;4958404;28;20047;-77
2023/10/11 14:02:49;;;;;;;14.27;4.17;;;19.50;99.90;;;;;;4974492;28;20050;-77
2023/10/11 14:05:18;;;;;;;13.65;3.75;;;19.50;99.90;;;;;;4974550;28;20129;-79
2023/10/11 14:07:50;;;;;;;12.07;4.03;;;19.50;99.90;;;;;;4958214;28;20053;-78
2023/10/11 14:10:45;;;;;;;12.48;3.83;;;19.50;99.90;;;;;;4958282;28;20054;-80
2023/10/11 14:13:08;;;;;;;13.77;4.30;;;19.50;99.90;;;;;;4973690;28;20062;-78
2023/10/11 14:15:35;;;;;;;12.15;3.85;;;19.40;99.90;;;;;;4974500;28;20122;-77
2023/10/11 14:18:03;;;;;;;14.57;4.30;;;19.50;99.90;;;;;;4974277;28;20050;-78
2023/10/11 14:20:30;;;;;;;11.40;3.72;;;19.50;99.90;;;;;;4974250;28;20050;-78
2023/10/11 14:22:57;;;;;;;13.32;3.67;;;19.40;99.90;;;;;;4974397;28;20390;-79
2023/10/11 14:25:26;;;;;;;11.35;4.00;;;19.50;99.90;;;;;;4958075;28;20046;-79
2023/10/11 14:27:52;;;;;;;13.27;4.07;;;19.60;99.90;;;;;;4975221;28;20093;-81
2023/10/11 14:30:18;;;;;;;10.68;4.28;;;19.60;99.90;;;;;;4975074;28;20041;-78
2023/10/11 14:32:45;;;;;;;13.80;4.15;;;19.60;99.90;;;;;;4975558;28;20109;-80
2023/10/11 14:35:15;;;;;;;12.95;3.63;;;19.60;99.90;;;;;;4973757;28;20101;-77
2023/10/11 14:37:41;;;;;;;13.02;3.65;;;19.60;99.90;;;;;;4974297;28;20120;-77
2023/10/11 14:40:15;;;;;;;10.95;3.88;;;19.60;99.90;;;;;;4973661;28;20074;-75
2023/10/11 14:42:41;;;;;;;15.70;3.83;;;19.60;99.90;;;;;;4974674;28;20114;-75
2023/10/11 14:45:11;;;;;;;12.82;4.13;;;19.60;99.90;;;;;;4977776;28;20101;-75
2023/10/11 14:47:38;;;;;;;14.88;4.35;;;19.50;99.90;;;;;;4979120;28;20041;-75
2023/10/11 14:50:10;;;;;;;10.95;4.15;;;19.50;99.90;;;;;;4975055;28;20046;-75
2023/10/11 14:52:39;;;;;;;13.02;4.55;;;19.40;99.90;;;;;;4957551;28;20126;-79
2023/10/11 14:55:05;;;;;;;13.32;4.22;;;19.30;99.90;;;;;;4973476;28;20511;-76
2023/10/11 14:57:31;;;;;;;13.02;4.32;;;19.30;99.90;;;;;;4973415;28;20039;-81
2023/10/11 14:59:56;;;;;;;16.42;4.00;;;19.20;99.90;;;;;;4973461;28;20509;-77
2023/10/11 15:02:22;;;;;;;15.07;4.35;;;19.20;99.90;;;;;;4974519;28;20042;-77
2023/10/11 15:04:51;;;;;;;15.80;4.32;;;19.20;99.90;;;;;;4972826;28;20509;-76
2023/10/11 15:07:18;;;;;;;20.60;4.63;;;19.20;99.90;;;;;;4973507;28;20564;-77
2023/10/11 15:09:44;;;;;;;10.35;4.53;;;19.20;99.90;;;;;;4974714;28;20047;-76
2023/10/11 15:12:10;;;;;;;11.10;4.60;;;19.10;99.90;;;;;;4974403;28;20505;-76
2023/10/11 15:14:36;;;;;;;15.75;5.38;;;19.10;99.90;;;;;;4973206;28;20050;-77
2023/10/11 15:17:02;;;;;;;15.48;4.70;;;19.10;99.90;;;;;;4973500;28;20391;-77
2023/10/11 15:19:30;;;;;;;16.75;4.68;;;19.00;99.90;;;;;;4973104;28;20039;-78
2023/10/11 15:21:55;;;;;;;13.50;4.60;;;18.90;99.90;;;;;;4973065;28;20129;-75
2023/10/11 15:24:23;;;;;;;12.20;4.90;;;18.90;99.90;;;;;;4956912;28;20130;-77
2023/10/11 15:26:50;;;;;;;13.05;5.07;;;19.00;99.90;;;;;;4957166;28;20042;-77
2023/10/11 15:29:16;;;;;;;18.25;6.65;;;19.00;99.90;;;;;;4974793;28;20038;-76
2023/10/11 15:31:42;;;;;;;18.63;5.57;;;18.90;99.90;;;;;;4974129;28;20050;-78
2023/10/11 15:34:12;;;;;;;20.80;6.05;;;18.80;99.90;;;;;;4973259;28;20407;-77
2023/10/11 15:36:40;;;;;;;14.88;5.20;;;18.80;99.90;;;;;;4974142;28;20110;-77
2023/10/11 15:39:08;;;;;;;17.48;5.30;;;18.70;99.90;;;;;;4973124;28;20114;-76
2023/10/11 15:41:34;;;;;;;16.17;5.93;;;18.70;99.90;;;;;;4956818;28;20479;-76
2023/10/11 15:44:01;;;;;;;17.40;5.50;;;18.70;99.90;;;;;;4973065;28;20035;-78
2023/10/11 15:46:27;;;;;;;17.25;5.45;;;18.70;99.90;;;;;;4972830;28;20475;-78
2023/10/11 15:48:54;;;;;;;18.95;5.88;;;18.60;99.90;;;;;;4973912;28;20043;-79
2023/10/11 15:51:23;;;;;;;18.25;6.10;;;18.60;99.90;;;;;;4976704;28;20517;-80
2023/10/11 15:53:50;;;;;;;18.13;6.57;;;18.50;99.90;;;;;;4960719;28;20051;-79
2023/10/11 15:56:17;;;;;;;16.13;6.03;;;18.40;99.90;;;;;;4976956;28;20047;-79
2023/10/11 15:58:49;;;;;;;22.33;7.60;;;18.40;99.90;;;;;;4977796;28;20047;-79
2023/10/11 16:01:15;;;;;;;19.45;6.65;;;18.30;99.90;;;;;;4977622;28;20133;-79
2023/10/11 16:03:44;;;;;;;20.55;7.03;;;18.30;99.90;;;;;;4976226;28;20099;-79
2023/10/11 16:06:10;;;;;;;16.70;6.38;;;18.20;99.90;;;;;;4977818;28;20371;-78
2023/10/11 16:08:37;;;;;;;19.20;6.38;;;18.20;99.90;;;;;;4977789;28;20049;-78
2023/10/11 16:11:13;;;;;;;21.50;7.15;;;18.20;99.90;;;;;;4977125;28;20081;-77
2023/10/11 16:13:42;;;;;;;17.02;6.93;;;18.20;99.90;;;;;;4976388;28;20053;-80
2023/10/11 16:16:09;;;;;;;21.95;7.25;;;18.10;99.90;;;;;;4976376;28;20080;-78
2023/10/11 16:18:45;;;;;;;25.60;9.88;;;18.10;99.90;;;;;;4976275;28;20126;-78
2023/10/11 16:21:12;;;;;;;18.88;7.43;;;18.10;99.90;;;;;;4977651;28;20035;-78
2023/10/11 16:23:43;;;;;;;19.23;7.53;;;18.00;99.90;;;;;;4976098;28;20491;-79
2023/10/11 16:26:14;;;;;;;24.02;8.18;;;17.90;99.90;;;;;;4977361;28;20042;-78
2023/10/11 16:28:40;;;;;;;18.90;7.93;;;17.90;99.90;;;;;;4976084;28;20047;-78